createdAt,value
2018-01-29T09:19:42.597Z,8.00
2018-01-29T09:22:10.916Z,8.00
2018-01-29T09:24:38.826Z,8.00
2018-01-29T09:27:06.490Z,8.00
2018-01-29T09:29:34.107Z,8.00
2018-01-29T09:32:01.935Z,8.00
2018-01-29T09:34:30.433Z,8.00
2018-01-29T09:36:57.998Z,8.00
2018-01-29T09:39:25.596Z,8.10
2018-01-29T09:41:53.180Z,8.10
2018-01-29T09:44:21.109Z,8.10
2018-01-29T09:46:48.910Z,8.10
2018-01-29T09:49:16.899Z,8.10
2018-01-29T09:51:44.705Z,8.10
2018-01-29T09:54:12.306Z,8.10
2018-01-29T09:56:39.972Z,8.10
2018-01-29T09:59:07.506Z,8.10
2018-01-29T10:01:35.203Z,8.10
2018-01-29T10:04:03.550Z,8.10
2018-01-29T10:06:31.130Z,8.20
2018-01-29T10:08:58.909Z,8.20
2018-01-29T10:11:26.619Z,8.20
2018-01-29T10:13:54.905Z,8.20
2018-01-29T10:16:22.451Z,8.20
2018-01-29T10:18:50.013Z,8.20
2018-01-29T10:21:17.819Z,8.20
2018-01-29T10:23:45.462Z,8.20
2018-01-29T10:26:13.039Z,8.20
2018-01-29T10:28:40.768Z,8.20
2018-01-29T10:31:08.404Z,8.20
2018-01-29T10:33:37.025Z,8.30
2018-01-29T10:36:04.566Z,8.30
2018-01-29T10:38:32.860Z,8.30
2018-01-29T10:41:00.869Z,8.30
2018-01-29T10:43:28.507Z,8.30
2018-01-29T10:45:56.224Z,8.30
2018-01-29T10:48:24.564Z,8.40
2018-01-29T10:50:52.263Z,8.40
2018-01-29T10:53:20.832Z,8.40
2018-01-29T10:55:48.475Z,8.40
2018-01-29T10:58:16.079Z,8.40
2018-01-29T11:00:44.455Z,8.40
2018-01-29T11:03:12.959Z,8.50
2018-01-29T11:05:40.531Z,8.40
2018-01-29T11:08:08.174Z,8.50
2018-01-29T11:10:37.757Z,8.50
2018-01-29T11:13:06.385Z,8.50
2018-01-29T11:15:34.030Z,8.50
2018-01-29T11:18:02.389Z,8.50
2018-01-29T11:20:30.187Z,8.50
2018-01-29T11:22:58.321Z,8.50
2018-01-29T11:25:25.905Z,8.50
2018-01-29T11:27:54.199Z,8.60
2018-01-29T11:30:21.899Z,8.60
2018-01-29T11:32:49.558Z,8.60
2018-01-29T11:35:18.369Z,8.60
2018-01-29T11:37:46.129Z,8.60
2018-01-29T11:40:13.913Z,8.60
2018-01-29T11:42:42.459Z,8.60
2018-01-29T11:45:11.117Z,8.60
2018-01-29T11:47:39.826Z,8.60
2018-01-29T11:50:07.454Z,8.60
2018-01-29T11:52:37.082Z,8.50
2018-01-29T11:55:06.314Z,8.60
2018-01-29T11:57:34.128Z,8.60
2018-01-29T12:00:01.801Z,8.60
2018-01-29T12:02:29.460Z,8.60
2018-01-29T12:04:57.035Z,8.60
2018-01-29T12:07:24.770Z,8.60
2018-01-29T12:09:52.468Z,8.60
2018-01-29T12:12:20.158Z,8.60
2018-01-29T12:14:47.711Z,8.60
2018-01-29T12:17:16.294Z,8.70
2018-01-29T12:19:44.417Z,8.60
2018-01-29T12:22:12.740Z,8.60
2018-01-29T12:24:40.605Z,8.60
2018-01-29T12:27:08.163Z,8.70
2018-01-29T12:29:35.786Z,8.70
2018-01-29T12:32:04.373Z,8.80
2018-01-29T12:34:32.794Z,8.80
2018-01-29T12:37:00.494Z,8.80
2018-01-29T12:39:28.856Z,8.80
2018-01-29T12:41:56.558Z,8.70
2018-01-29T12:44:24.921Z,8.80
2018-01-29T12:46:53.274Z,8.80
2018-01-29T12:49:21.412Z,8.80
2018-01-29T12:51:49.023Z,8.80
2018-01-29T12:54:16.755Z,8.80
2018-01-29T12:56:44.302Z,8.80
2018-01-29T12:59:11.857Z,8.80
2018-01-29T13:01:40.008Z,8.80
2018-01-29T13:04:08.401Z,8.70
2018-01-29T13:06:36.061Z,8.70
2018-01-29T13:09:03.829Z,8.70
2018-01-29T13:11:31.565Z,8.70
2018-01-29T13:13:59.867Z,8.80
2018-01-29T13:16:28.722Z,8.70
2018-01-29T13:18:56.266Z,8.70
2018-01-29T13:21:23.982Z,8.70
2018-01-29T13:23:51.798Z,8.70
2018-01-29T13:26:19.853Z,8.60
2018-01-29T13:28:47.482Z,8.60
2018-01-29T13:31:15.048Z,8.60
2018-01-29T13:33:42.621Z,8.60
2018-01-29T13:36:10.258Z,8.60
2018-01-29T13:38:38.587Z,8.60
2018-01-29T13:41:06.216Z,8.60
2018-01-29T13:43:33.776Z,8.60
2018-01-29T13:46:01.677Z,8.60
2018-01-29T13:48:29.559Z,8.60
2018-01-29T13:50:57.422Z,8.60
2018-01-29T13:53:25.253Z,8.60
2018-01-29T13:55:52.828Z,8.60
2018-01-29T13:58:20.507Z,8.60
2018-01-29T14:00:48.706Z,8.60
2018-01-29T14:03:17.193Z,8.60
2018-01-29T14:05:45.615Z,8.60
2018-01-29T14:08:13.588Z,8.60
2018-01-29T14:10:41.152Z,8.60
2018-01-29T14:13:08.812Z,8.70
2018-01-29T14:15:37.999Z,8.70
2018-01-29T14:18:05.557Z,8.60
2018-01-29T14:20:33.122Z,8.70
2018-01-29T14:23:00.676Z,8.60
2018-01-29T14:25:28.274Z,8.70
2018-01-29T14:27:56.061Z,8.70
2018-01-29T14:43:19.259Z,8.60
2018-01-29T14:45:46.846Z,8.60
2018-01-29T14:48:14.410Z,8.60
2018-01-29T14:50:42.143Z,8.60
2018-01-29T14:53:09.751Z,8.60
2018-01-29T14:55:37.424Z,8.60
2018-01-29T14:58:05.102Z,8.60
2018-01-29T15:00:32.651Z,8.50
2018-01-29T15:03:00.712Z,8.50
2018-01-29T15:05:32.249Z,8.50
2018-01-29T15:08:00.667Z,8.50
2018-01-29T15:10:29.066Z,8.50
2018-01-29T15:12:56.849Z,8.50
2018-01-29T15:15:25.205Z,8.50
2018-01-29T15:17:54.204Z,8.50
2018-01-29T15:20:22.706Z,8.50
2018-01-29T15:22:50.443Z,8.50
2018-01-29T15:25:18.788Z,8.50
2018-01-29T15:27:46.451Z,8.50
2018-01-29T15:30:14.431Z,8.50
2018-01-29T15:32:42.228Z,8.40
2018-01-29T15:35:09.988Z,8.40
2018-01-29T15:37:38.708Z,8.50
2018-01-29T15:40:07.268Z,8.40
2018-01-29T15:42:35.107Z,8.40
2018-01-29T15:45:02.950Z,8.40
2018-01-29T15:47:30.871Z,8.40
2018-01-29T15:49:59.907Z,8.40
2018-01-29T15:52:27.555Z,8.40
2018-01-29T15:54:55.587Z,8.40
2018-01-29T15:57:24.307Z,8.40
2018-01-29T15:59:51.884Z,8.40
2018-01-29T16:02:19.592Z,8.40
2018-01-29T16:04:47.275Z,8.40
2018-01-29T16:07:15.692Z,8.40
2018-01-29T16:09:44.435Z,8.40
2018-01-29T16:12:13.288Z,8.40
2018-01-29T16:14:41.107Z,8.40
2018-01-29T16:17:08.988Z,8.40
2018-01-29T16:19:36.947Z,8.40
2018-01-29T16:22:05.331Z,8.40
2018-01-29T16:24:33.268Z,8.40
2018-01-29T16:27:01.988Z,8.40
2018-01-29T16:29:29.875Z,8.40
2018-01-29T16:31:57.808Z,8.40
2018-01-29T16:34:25.669Z,8.40
2018-01-29T16:36:54.279Z,8.50
2018-01-29T16:39:21.915Z,8.40
2018-01-29T16:41:49.847Z,8.40
2018-01-29T16:44:18.748Z,8.40
2018-01-29T16:46:46.581Z,8.50
2018-01-29T16:49:14.263Z,8.50
2018-01-29T16:51:42.438Z,8.50
2018-01-29T16:54:10.529Z,8.50
2018-01-29T16:56:38.357Z,8.50
2018-01-29T16:59:06.393Z,8.50
2018-01-29T17:01:34.246Z,8.50
2018-01-29T17:04:03.397Z,8.50
2018-01-29T17:06:32.145Z,8.50
2018-01-29T17:09:00.984Z,8.50
2018-01-29T17:11:28.858Z,8.50
2018-01-29T17:13:56.570Z,8.50
2018-01-29T17:16:24.438Z,8.50
2018-01-29T17:18:53.070Z,8.50
2018-01-29T17:21:20.631Z,8.50
2018-01-29T17:23:48.513Z,8.50
2018-01-29T17:26:16.135Z,8.50
2018-01-29T17:28:43.711Z,8.50
2018-01-29T17:31:11.316Z,8.50
2018-01-29T17:33:39.692Z,8.50
2018-01-29T17:36:08.114Z,8.50
2018-01-29T17:38:35.873Z,8.50
2018-01-29T17:41:03.465Z,8.50
2018-01-29T17:43:32.311Z,8.50
2018-01-29T17:46:00.836Z,8.50
2018-01-29T17:48:28.488Z,8.50
2018-01-29T17:50:56.077Z,8.50
2018-01-29T17:53:25.244Z,8.50
2018-01-29T17:55:54.209Z,8.60
2018-01-29T17:58:22.028Z,8.50
2018-01-29T18:00:49.820Z,8.60
2018-01-29T18:03:17.714Z,8.60
2018-01-29T18:05:45.501Z,8.60
2018-01-29T18:08:13.142Z,8.60
2018-01-29T18:10:42.114Z,8.60
2018-01-29T18:13:10.613Z,8.60
2018-01-29T18:15:39.975Z,8.60
2018-01-29T18:18:07.684Z,8.60
2018-01-29T18:20:35.502Z,8.60
2018-01-29T18:23:03.608Z,8.60
2018-01-29T18:25:32.166Z,8.60
2018-01-29T18:27:59.801Z,8.60
2018-01-29T18:30:28.285Z,8.60
2018-01-29T18:32:56.323Z,8.60
2018-01-29T18:35:24.087Z,8.60
2018-01-29T18:37:51.699Z,8.50
2018-01-29T18:40:19.391Z,8.50
2018-01-29T18:42:46.954Z,8.50
2018-01-29T18:45:14.693Z,8.50
2018-01-29T18:47:42.462Z,8.50
2018-01-29T18:50:10.025Z,8.50
2018-01-29T18:52:38.398Z,8.50
2018-01-29T18:55:06.033Z,8.50
2018-01-29T18:57:33.663Z,8.50
2018-01-29T19:00:02.161Z,8.50
2018-01-29T19:02:29.882Z,8.50
2018-01-29T19:04:57.517Z,8.50
2018-01-29T19:07:25.224Z,8.50
2018-01-29T19:09:53.019Z,8.60
2018-01-29T19:12:20.909Z,8.60
2018-01-29T19:14:48.519Z,8.60
2018-01-29T19:17:16.216Z,8.60
2018-01-29T19:19:43.879Z,8.60
2018-01-29T19:22:11.530Z,8.70
2018-01-29T19:24:40.015Z,8.70
2018-01-29T19:27:07.603Z,8.60
2018-01-29T19:29:35.483Z,8.70
2018-01-29T19:32:03.135Z,8.70
2018-01-29T19:34:30.686Z,8.70
2018-01-29T19:36:59.523Z,8.70
2018-01-29T19:39:27.212Z,8.70
2018-01-29T19:41:55.609Z,8.80
2018-01-29T19:44:23.207Z,8.80
2018-01-29T19:46:50.961Z,8.80
2018-01-29T19:49:18.673Z,8.80
2018-01-29T19:51:46.422Z,8.80
2018-01-29T19:54:14.244Z,8.80
2018-01-29T19:56:41.899Z,8.80
2018-01-29T19:59:09.637Z,8.90
2018-01-29T20:01:38.108Z,8.80
2018-01-29T20:04:05.665Z,8.80
2018-01-29T20:06:33.220Z,8.80
2018-01-29T20:09:01.383Z,8.80
2018-01-29T20:11:29.128Z,8.80
2018-01-29T20:13:57.806Z,8.80
2018-01-29T20:16:25.574Z,8.80
2018-01-29T20:18:53.282Z,8.80
2018-01-29T20:21:20.952Z,8.80
2018-01-29T20:23:48.683Z,8.70
2018-01-29T20:26:16.865Z,8.80
2018-01-29T20:28:44.478Z,8.80
2018-01-29T20:31:12.278Z,8.70
2018-01-29T20:33:39.877Z,8.80
2018-01-29T20:36:08.539Z,8.80
2018-01-29T20:38:36.349Z,8.80
2018-01-29T20:41:04.123Z,8.80
2018-01-29T20:43:31.936Z,8.80
2018-01-29T20:45:59.663Z,8.80
2018-01-29T20:48:27.290Z,8.80
2018-01-29T20:50:54.932Z,8.80
2018-01-29T20:53:22.521Z,8.80
2018-01-29T20:55:52.630Z,8.80
2018-01-29T20:58:21.278Z,8.80
2018-01-29T21:00:50.794Z,8.80
2018-01-29T21:03:19.874Z,8.90
2018-01-29T21:05:47.510Z,8.90
2018-01-29T21:08:15.140Z,8.80
2018-01-29T21:10:43.027Z,8.90
2018-01-29T21:13:11.166Z,8.80
2018-01-29T21:15:38.730Z,8.80
2018-01-29T21:18:06.305Z,8.80
2018-01-29T21:20:36.866Z,8.80
2018-01-29T21:23:06.123Z,8.80
2018-01-29T21:25:34.382Z,8.80
2018-01-29T21:28:02.610Z,8.80
2018-01-29T21:30:30.470Z,8.80
2018-01-29T21:32:59.788Z,8.80
2018-01-29T21:35:27.529Z,8.80
2018-01-29T21:37:55.363Z,8.80
2018-01-29T21:40:23.201Z,8.80
2018-01-29T21:42:51.243Z,8.80
2018-01-29T21:45:18.836Z,8.70
2018-01-29T21:47:46.592Z,9.00
2018-01-29T21:50:14.208Z,9.10
2018-01-29T21:52:42.713Z,9.10
2018-01-29T21:55:11.106Z,9.10
2018-01-29T21:57:38.790Z,9.10
2018-01-29T22:00:06.792Z,9.10
2018-01-29T22:02:35.206Z,9.10
2018-01-29T22:05:03.442Z,9.10
2018-01-29T22:07:31.084Z,8.90
2018-01-29T22:09:58.632Z,8.80
2018-01-29T22:12:26.186Z,8.70
2018-01-29T22:14:53.814Z,8.70
2018-01-29T22:17:21.663Z,8.70
2018-01-29T22:19:49.333Z,8.60
2018-01-29T22:22:17.705Z,8.50
2018-01-29T22:24:46.041Z,8.50
2018-01-29T22:27:13.765Z,8.50
2018-01-29T22:29:41.404Z,8.50
2018-01-29T22:32:09.076Z,8.50
2018-01-29T22:34:37.472Z,8.50
2018-01-29T22:37:05.055Z,8.50
2018-01-29T22:39:32.623Z,8.50
2018-01-29T22:42:00.445Z,8.50
2018-01-29T22:44:28.047Z,8.50
2018-01-29T22:46:55.614Z,8.50
2018-01-29T22:49:23.232Z,8.60
2018-01-29T22:51:51.712Z,8.60
2018-01-29T22:54:20.162Z,8.50
2018-01-29T22:56:48.469Z,8.50
2018-01-29T22:59:16.237Z,8.60
2018-01-29T23:01:44.770Z,8.60
2018-01-29T23:04:12.380Z,8.60
2018-01-29T23:06:40.359Z,8.60
2018-01-29T23:09:07.969Z,8.60
2018-01-29T23:11:35.665Z,8.60
2018-01-29T23:14:03.696Z,8.60
2018-01-29T23:16:31.351Z,8.60
2018-01-29T23:18:58.931Z,8.60
2018-01-29T23:21:26.518Z,8.60
2018-01-29T23:23:55.013Z,8.70
2018-01-29T23:26:22.697Z,8.70
2018-01-29T23:28:50.500Z,8.70
2018-01-29T23:31:18.607Z,8.70
2018-01-29T23:33:46.403Z,8.70
2018-01-29T23:36:14.747Z,8.80
2018-01-29T23:38:42.310Z,8.70
2018-01-29T23:41:09.843Z,8.80
2018-01-29T23:43:37.672Z,8.80
2018-01-29T23:46:06.933Z,8.70
2018-01-29T23:48:35.346Z,8.70
2018-01-29T23:51:03.403Z,8.70
2018-01-29T23:53:31.791Z,8.70
2018-01-29T23:56:01.162Z,8.70
2018-01-29T23:58:28.813Z,8.70
